Decoded Metar for OIKK (KERMAN in IRAN) (IATA:KER) | Meteo·Mobile Aviation Weather
aviador You're here:

OIKK Decoded Metar

KERMAN in IRAN
Report Time2019-01-19 16:50:00
UTC Time2019-01-19 17:12:30
Flight Rules vfr VFR
Wind360° at 12 kt
W.Decomp.*RWY 34: 11.4 kt HW 3.7 kt RCW
RWY 05: 7.4 kt HW 9.5 kt LCW
Visibility9999 m
Phenomena:N/A
Clouds:N/A
Expected CloudBase > 5,600 ft AGL from Temp-Dew spread
CeilingNone
Temp01°C (ISA -3)
Dew Point-13°C (35% RH)
AAT-6.6°C
QNH1017 hPa
Density Alt5,351 ft
Elevation5,755 ft
Report Wrong Elevation
Raw Report
METAR OIKK 191650Z 36012KT CAVOK 01/M13 Q1017 A3004=

Extra information for OIKK:More info

Metar Taf Metar & Taf Last 4 Metars F.Rules Stats Wind Profile Meteogram Temp Stats Airport Information Weather charts Add Link Nearby VenuesMetar ALERT Operation Metar Decoded Social comments